createdAt,value
2023-01-10T00:01:29.136Z,0.33
2023-01-10T00:03:56.193Z,0.34
2023-01-10T00:06:23.179Z,0.34
2023-01-10T00:08:50.081Z,0.35
2023-01-10T00:11:35.899Z,0.36
2023-01-10T00:14:02.884Z,0.37
2023-01-10T00:16:29.903Z,0.39
2023-01-10T00:18:56.930Z,0.41
2023-01-10T00:21:23.885Z,0.40
2023-01-10T00:23:50.828Z,0.39
2023-01-10T00:26:17.783Z,0.38
2023-01-10T00:28:45.489Z,0.36
2023-01-10T00:31:13.962Z,0.32
2023-01-10T00:33:41.043Z,0.31
2023-01-10T00:36:08.988Z,0.33
2023-01-10T00:38:36.036Z,0.34
2023-01-10T00:41:03.766Z,0.34
2023-01-10T00:43:49.417Z,0.33
2023-01-10T00:46:16.393Z,0.34
2023-01-10T00:48:43.397Z,0.35
2023-01-10T00:51:10.296Z,0.37
2023-01-10T00:53:37.223Z,0.36
2023-01-10T00:56:04.306Z,0.34
2023-01-10T00:58:31.307Z,0.33
2023-01-10T01:00:58.367Z,0.33
2023-01-10T01:03:25.346Z,0.32
2023-01-10T01:05:52.766Z,0.31
2023-01-10T01:08:19.770Z,0.30
2023-01-10T01:10:46.727Z,0.28
2023-01-10T01:13:21.321Z,0.26
2023-01-10T01:15:48.522Z,0.23
2023-01-10T01:18:17.959Z,0.22
2023-01-10T01:20:47.712Z,0.21
2023-01-10T01:23:15.441Z,0.19
2023-01-10T01:25:42.492Z,0.17
2023-01-10T01:28:12.311Z,0.17
2023-01-10T01:30:39.276Z,0.18
2023-01-10T01:33:06.275Z,0.17
2023-01-10T01:35:33.832Z,0.15
2023-01-10T01:38:00.800Z,0.13
2023-01-10T01:40:27.788Z,0.11
2023-01-10T01:42:56.170Z,0.06
2023-01-10T01:45:23.100Z,0.05
2023-01-10T05:54:20.205Z,-3.13
2023-01-10T05:56:47.196Z,-2.79
2023-01-10T05:59:27.305Z,-2.88
2023-01-10T06:01:55.022Z,-2.73
2023-01-10T06:04:21.968Z,-2.64
2023-01-10T06:06:48.934Z,-2.68
2023-01-10T06:09:15.845Z,-2.70
2023-01-10T06:11:42.793Z,-2.75
2023-01-10T06:14:10.362Z,-3.10
2023-01-10T06:16:37.311Z,-3.19
2023-01-10T06:19:04.443Z,-2.86
2023-01-10T06:21:31.448Z,-2.80
2023-01-10T06:23:58.444Z,-2.78
2023-01-10T06:26:25.577Z,-2.75
2023-01-10T06:28:52.524Z,-2.78
2023-01-10T06:31:22.331Z,-2.83
2023-01-10T06:33:52.896Z,-2.89
2023-01-10T06:36:19.927Z,-2.92
2023-01-10T06:38:47.182Z,-2.95
2023-01-10T06:41:14.271Z,-2.99
2023-01-10T06:43:48.256Z,-3.00
2023-01-10T06:46:16.949Z,-3.01
2023-01-10T06:48:45.801Z,-2.97
2023-01-10T06:51:14.048Z,-2.96
2023-01-10T06:53:41.309Z,-2.94
2023-01-10T06:56:09.948Z,-2.92
2023-01-10T06:58:39.014Z,-2.91
2023-01-10T07:01:17.208Z,-2.86
2023-01-10T07:03:44.308Z,-2.81
2023-01-10T07:06:11.677Z,-2.78
2023-01-10T07:08:40.802Z,-2.72
2023-01-10T07:11:08.640Z,-2.66
2023-01-10T07:13:36.031Z,-2.59
2023-01-10T07:16:04.668Z,-2.52
2023-01-10T07:18:32.326Z,-2.47
2023-01-10T07:20:59.315Z,-2.44
2023-01-10T07:23:26.299Z,-2.39
2023-01-10T07:25:53.240Z,-2.32
2023-01-10T07:28:20.207Z,-2.26
2023-01-10T07:30:47.133Z,-2.22
2023-01-10T07:33:14.096Z,-2.20
2023-01-10T07:35:41.115Z,-2.16
2023-01-10T07:38:09.279Z,-2.14
2023-01-10T07:40:36.362Z,-2.13
2023-01-10T07:43:03.705Z,-2.13
2023-01-10T07:45:30.898Z,-2.17
2023-01-10T07:48:01.729Z,-2.19
2023-01-10T07:50:30.029Z,-2.20
2023-01-10T07:52:57.368Z,-2.16
2023-01-10T07:55:24.475Z,-2.13
2023-01-10T07:57:51.918Z,-2.12
2023-01-10T08:00:19.519Z,-2.10
2023-01-10T08:02:46.916Z,-2.06
2023-01-10T08:05:14.749Z,-2.05
2023-01-10T08:07:41.969Z,-2.03
2023-01-10T08:10:09.825Z,-2.01
2023-01-10T08:12:36.874Z,-2.01
2023-01-10T08:15:04.191Z,-2.00
2023-01-10T08:17:34.353Z,-1.97
2023-01-10T08:20:01.519Z,-1.97
2023-01-10T08:22:28.595Z,-1.94
2023-01-10T08:24:55.652Z,-1.90
2023-01-10T08:27:22.735Z,-1.91
2023-01-10T08:29:49.874Z,-1.93
2023-01-10T08:32:16.944Z,-1.91
2023-01-10T08:34:43.979Z,-1.90
2023-01-10T08:37:13.481Z,-1.89
2023-01-10T08:39:40.611Z,-1.87
2023-01-10T08:42:07.738Z,-1.81
2023-01-10T08:44:35.026Z,-2.11
2023-01-10T08:47:02.354Z,-2.16
2023-01-10T08:49:29.413Z,-1.87
2023-01-10T08:51:56.457Z,-1.60
2023-01-10T08:54:23.518Z,-1.44
2023-01-10T08:56:50.577Z,-1.28
2023-01-10T08:59:18.123Z,-1.16
2023-01-10T09:01:45.358Z,-1.03
2023-01-10T09:04:12.596Z,-0.98
2023-01-10T09:06:39.693Z,-1.00
2023-01-10T09:09:06.988Z,-0.98
2023-01-10T09:11:34.071Z,-0.93
2023-01-10T09:14:01.113Z,-1.06
2023-01-10T09:16:28.171Z,-0.85
2023-01-10T09:18:55.965Z,-0.84
2023-01-10T09:21:23.079Z,-0.92
2023-01-10T09:23:50.040Z,-0.98
2023-01-10T09:26:17.051Z,-1.04
2023-01-10T09:28:44.103Z,-1.07
2023-01-10T09:31:12.235Z,-1.26
2023-01-10T09:33:46.805Z,-1.34
2023-01-10T09:36:16.047Z,-1.03
2023-01-10T09:38:44.015Z,-0.99
2023-01-10T09:41:40.818Z,-1.02
2023-01-10T09:44:39.656Z,-1.03
2023-01-10T09:47:25.579Z,-0.98
2023-01-10T09:50:15.600Z,-0.91
2023-01-10T09:52:47.989Z,-0.88
2023-01-10T09:55:32.480Z,-0.87
2023-01-10T16:36:44.173Z,-0.76
2023-01-10T16:39:22.090Z,-0.24
2023-01-10T16:42:07.762Z,-0.26
2023-01-10T16:44:35.012Z,-0.25
2023-01-10T16:47:03.307Z,-0.24
2023-01-10T16:49:32.551Z,-0.26
2023-01-10T16:51:59.655Z,-0.26
2023-01-10T16:54:26.893Z,-0.26
2023-01-10T16:56:54.053Z,-0.26
2023-01-10T16:59:21.104Z,-0.28
2023-01-10T17:01:53.097Z,-0.27
2023-01-10T17:04:27.415Z,-0.29
2023-01-10T17:06:57.181Z,-0.31
2023-01-10T17:09:28.142Z,-0.34
2023-01-10T17:12:07.586Z,-0.36
2023-01-10T17:14:35.790Z,-0.39
2023-01-10T17:17:03.362Z,-0.40
2023-01-10T17:19:30.459Z,-0.39
2023-01-10T17:21:57.654Z,-0.40
2023-01-10T17:24:24.990Z,-0.39
2023-01-10T17:26:52.028Z,-0.40
2023-01-10T17:29:19.013Z,-0.40
2023-01-10T17:31:46.062Z,-0.40
2023-01-10T17:34:15.250Z,-0.38
2023-01-10T17:36:42.901Z,-0.38
2023-01-10T17:39:10.242Z,-0.39
2023-01-10T17:41:37.279Z,-0.38
2023-01-10T17:44:05.644Z,-0.36
2023-01-10T17:46:35.392Z,-0.35
2023-01-10T17:49:03.080Z,-0.35
2023-01-10T17:51:30.129Z,-0.41
2023-01-10T17:53:57.453Z,-0.34
2023-01-10T17:56:25.068Z,-0.34
2023-01-10T17:58:53.400Z,-0.35
2023-01-10T18:01:24.755Z,-0.37
2023-01-10T18:03:52.946Z,-0.40
2023-01-10T18:06:24.178Z,-0.42
2023-01-10T18:08:52.220Z,-0.48
2023-01-10T22:02:27.167Z,-3.49
2023-01-10T22:04:54.433Z,-2.90
2023-01-10T22:07:25.365Z,-2.92
2023-01-10T22:09:52.330Z,-2.93
2023-01-10T22:12:23.710Z,-2.92
2023-01-10T22:14:52.456Z,-2.85
2023-01-10T22:17:19.226Z,-2.84
2023-01-10T22:19:46.041Z,-2.85
2023-01-10T22:22:13.706Z,-2.87
2023-01-10T22:24:42.065Z,-2.90
2023-01-10T22:27:09.460Z,-2.95
2023-01-10T22:29:37.482Z,-2.98
2023-01-10T22:32:06.883Z,-3.01
2023-01-10T22:34:37.334Z,-3.02
2023-01-10T22:37:04.273Z,-3.03
2023-01-10T22:39:31.427Z,-3.04
2023-01-10T22:41:58.270Z,-3.04
2023-01-10T22:44:26.076Z,-3.05
2023-01-10T22:46:53.991Z,-3.05
2023-01-10T22:49:21.088Z,-3.04
2023-01-10T22:51:48.038Z,-3.02
2023-01-10T22:54:18.028Z,-3.03
2023-01-10T22:56:46.401Z,-3.05
2023-01-10T23:02:01.465Z,-3.08
2023-01-10T23:04:30.507Z,-3.08
2023-01-10T23:06:59.603Z,-3.07
2023-01-10T23:09:26.591Z,-3.07
2023-01-10T23:11:53.311Z,-3.06
2023-01-10T23:14:20.246Z,-3.07
2023-01-10T23:16:47.455Z,-3.09
2023-01-10T23:19:14.543Z,-3.07
2023-01-10T23:21:41.417Z,-3.07
2023-01-10T23:24:08.293Z,-3.10
2023-01-10T23:26:35.810Z,-3.14
2023-01-10T23:29:02.747Z,-3.16
2023-01-10T23:31:31.346Z,-3.18
2023-01-10T23:33:58.376Z,-3.20
2023-01-10T23:36:25.223Z,-3.23
2023-01-10T23:38:51.963Z,-3.28
2023-01-10T23:41:21.534Z,-3.34
2023-01-10T23:43:49.332Z,-3.43
2023-01-10T23:46:16.324Z,-3.49
2023-01-10T23:48:45.698Z,-3.53
2023-01-10T23:51:13.043Z,-3.59
2023-01-10T23:53:40.186Z,-3.62
2023-01-10T23:56:11.721Z,-3.66
2023-01-10T23:58:38.761Z,-3.67
